Etusivu
METAR-TAF:

METAR-TAF

Lentoasemat :

Wellington, Uusi-Seelanti

Wellingtonin kansainvälinen lentoasema

Leveyspiiri: 41-20S, Pituuspiiri: 174-48E, korkeus merenpinnasta: 12 m

Tämänhetkinen sää

Tämä raportti tehtiin 46 minuuttia sitten, kello 00.30 UTC
Tuuli 8 kn pohjoisesta
Lämpötila 14°C
Kosteus 72%
Ilmanpaine 1020 hPa
Näkyvyys 10 km tai enemmän

METAR: NZWN 250030Z AUTO 01008KT 9999 NCD 14/09 Q1020 NOSIG

Aika: 13:16 (01:16 UTC)

Sääennuste

Tämä raportti tehtiin 2 tuntia ja 10 minuuttia sitten, kello 23.06 UTC
Ennuste voimassa 25. päivästä klo 00 UTC - 26. päivään klo 00 UTC
Tuuli 15 kn pohjoisesta
Näkyvyys 10 km tai enemmän
ei pilviä alle 1500 m:ssä eikä cumulonimbus-pilviä

TAF: NZWN 242306Z 2500/2600 01015KT CAVOK

Säähavainnot ja -ennusteet yli 4000 lentoasemalta (METAR- ja TAF-raportit).

Käytössä olevat sääasemat on merkitty karttaan keltaisilla ja punaisilla pisteillä.

Aseta hiiri pisteen päälle nähdäksesi sääaseman nimen.

Klikkaa sitten nähdäksesi säähavainnot ja -ennusteet.

Kartan vaihtaminen: klikkaa mustalla rastilla varustettuja vihreitä pisteitä, niin voit zoomata sisään; viivalla varustettua vihreää pistettä, niin voit zoomata ulos tai vihreitä nuolia, niin pääset viereisille kartoille.


METAR-TAF: